Point Comfort — WDG5997 — position and weather

sailwx.info

Track history (hours):
 
Tides and Currents Weather Stations Pressure Air Temp Water Temp Dewpoint Dewpoint Depression Visibility Wind Speed Wind Dir Waves Ship Positions

Point Comfort

Owner: Higman Barge Lines, Inc, Orange, TX. More information available from US FCC via Universal Licensing System and Coast Guard Vessel Documentation Center.

Last reported at 2018-Jul-16 23:30 UTC. Time now 2018-Jul-16 23:53 UTC.
Position N 30°08' W 093°19'.

Length 115 m; draft 2.4 m.

Type: . MMSI: 367552440.

Date/timePositionNaut miles runAvg speedWind from/ knotsBaromVisibWave heightAir tempDewpointWater temp
2018-Jul-16 23:30N 30°08' W 093°19'0 0.1
2018-Jul-16 23:00N 30°08' W 093°19'2 4.2
2018-Jul-16 22:30N 30°06' W 093°20'2 4.1
2018-Jul-16 22:00N 30°04' W 093°21'2 3.4
2018-Jul-16 21:30N 30°04' W 093°22'2 3.6
2018-Jul-16 21:00N 30°04' W 093°25'2 4.2
2018-Jul-16 20:30N 30°04' W 093°27'2 3.5
2018-Jul-16 20:00N 30°04' W 093°29'2 4.7
2018-Jul-16 19:30N 30°04' W 093°32'3 4.8
2018-Jul-16 18:59N 30°04' W 093°35'2 5.0
2018-Jul-16 18:30N 30°04' W 093°37'3 5.3
2018-Jul-16 18:00N 30°04' W 093°40'3 5.1
2018-Jul-16 17:30N 30°03' W 093°43'2 3.9
2018-Jul-16 17:00N 30°01' W 093°44'3 6.3
2018-Jul-16 16:30N 29°59' W 093°47'3 6.4
2018-Jul-16 15:59N 29°58' W 093°51'3 6.9
2018-Jul-16 15:30N 29°55' W 093°53'4 7.8
2018-Jul-16 15:00N 29°52' W 093°56'4 7.2
2018-Jul-16 14:30N 29°49' W 093°58'3 5.5
2018-Jul-16 14:00N 29°48' W 094°00'3 5.3
2018-Jul-16 13:30N 29°46' W 094°03'2 5.1
2018-Jul-16 13:00N 29°44' W 094°05'2 5.0
2018-Jul-16 12:30N 29°43' W 094°07'3 5.1
2018-Jul-16 12:00N 29°41' W 094°10'3 5.3
2018-Jul-16 11:30N 29°41' W 094°13'3 5.5
2018-Jul-16 11:00N 29°39' W 094°15'3 5.5
2018-Jul-16 10:31N 29°38' W 094°18'2 4.5
2018-Jul-16 10:01N 29°37' W 094°20'2 4.3
2018-Jul-16 09:30N 29°36' W 094°23'2 4.5
2018-Jul-16 08:59N 29°35' W 094°25'3 5.6
2018-Jul-16 08:30N 29°33' W 094°28'3 5.8
2018-Jul-16 07:58N 29°31' W 094°30'3 5.9
2018-Jul-16 07:29N 29°30' W 094°33'2 4.6
2018-Jul-16 06:59N 29°29' W 094°36'2 4.3
2018-Jul-16 06:25N 29°28' W 094°38'2 4.3
2018-Jul-16 06:00N 29°28' W 094°40'2 4.3
2018-Jul-16 05:30N 29°26' W 094°42'2 3.9
2018-Jul-16 04:58N 29°25' W 094°44'2 3.5
2018-Jul-16 04:30N 29°24' W 094°45'2 3.7
2018-Jul-16 04:00N 29°23' W 094°47'6 5.2
2018-Jul-16 02:46N 29°28' W 094°51'2 7.2
2018-Jul-16 02:30N 29°30' W 094°52'4 7.1
2018-Jul-16 02:00N 29°32' W 094°54'3 6.8
2018-Jul-16 01:30N 29°35' W 094°56'4 6.8
2018-Jul-16 00:55N 29°39' W 094°58'3 6.6
2018-Jul-16 00:30N 29°42' W 094°59'7 0.4
2018-Jul-15 04:32N 29°47' W 095°04'0 0.0
2018-Jul-15 04:25N 29°47' W 095°04'1 1.1
2018-Jul-15 03:15N 29°46' W 095°05'0 1.5
2018-Jul-15 02:57N 29°46' W 095°05'1 0.1
2018-Jul-14 11:26N 29°45' W 095°04'2 0.1
2018-Jul-13 21:33N 29°46' W 095°05'0 0.0
2018-Jul-13 13:59N 29°46' W 095°05'3 5.4
2018-Jul-13 13:22N 29°44' W 095°09'1 0.1
2018-Jul-13 06:20N 29°44' W 095°10'0 0.0
2018-Jul-12 16:57N 29°44' W 095°10'0 0.5
2018-Jul-12 16:29N 29°45' W 095°10'2 1.8
2018-Jul-12 15:15N 29°44' W 095°07'3 2.0
2018-Jul-12 13:33N 29°47' W 095°05'0 0.1
2018-Jul-12 13:10N 29°47' W 095°05'0 0.2
2018-Jul-12 12:56N 29°47' W 095°05'0 0.2
2018-Jul-12 11:56N 29°47' W 095°04'0 0.2
2018-Jul-12 11:26N 29°47' W 095°05'1 0.9
2018-Jul-12 10:17N 29°46' W 095°04'0 0.0
2018-Jul-12 09:58N 29°46' W 095°04'2 2.8
2018-Jul-12 09:25N 29°47' W 095°04'0 0.4
2018-Jul-12 08:59N 29°47' W 095°04'0 0.1
2018-Jul-12 06:11N 29°47' W 095°05'0 0.0
2018-Jul-12 05:50N 29°47' W 095°05'2 0.2
2018-Jul-11 20:30N 29°45' W 095°06'2 0.3
2018-Jul-11 14:35N 29°47' W 095°04'0 0.0
2018-Jul-11 14:13N 29°47' W 095°04'0 0.5
2018-Jul-11 13:59N 29°47' W 095°04'0 0.5
2018-Jul-11 13:30N 29°47' W 095°04'0 0.0
2018-Jul-11 12:54N 29°47' W 095°04'0 0.0
2018-Jul-11 12:30N 29°47' W 095°04'0 0.0
2018-Jul-11 11:59N 29°47' W 095°04'2 0.6
2018-Jul-11 09:33N 29°46' W 095°05'0 6.6
2018-Jul-11 09:29N 29°46' W 095°05'4 6.1
2018-Jul-11 08:53N 29°44' W 095°09'2 6.2
2018-Jul-11 08:30N 29°45' W 095°12'2 4.0
2018-Jul-11 08:00N 29°44' W 095°14'0 0.0
2018-Jul-11 07:30N 29°44' W 095°14'0 0.9
2018-Jul-11 07:00N 29°44' W 095°13'4 6.8
2018-Jul-11 06:28N 29°44' W 095°09'3 7.3
2018-Jul-11 06:00N 29°46' W 095°06'2 4.5
2018-Jul-11 05:28N 29°48' W 095°04'0 0.1
2018-Jul-11 05:00N 29°48' W 095°04'1 1.4
2018-Jul-11 04:28N 29°47' W 095°05'0 0.0
2018-Jul-11 03:53N 29°47' W 095°05'0 0.0
2018-Jul-11 03:30N 29°47' W 095°05'0 0.0
2018-Jul-11 02:57N 29°47' W 095°05'0 0.3
2018-Jul-11 02:25N 29°47' W 095°04'1 0.2
2018-Jul-10 21:34N 29°46' W 095°05'2 6.7
2018-Jul-10 21:20N 29°45' W 095°06'2 0.7
2018-Jul-10 18:09N 29°44' W 095°09'1 6.5
2018-Jul-10 17:59N 29°44' W 095°07'3 1.8
2018-Jul-10 16:18N 29°46' W 095°05'10 3.2
2018-Jul-10 13:16N 29°44' W 095°16'0 0.0
2018-Jul-10 12:53N 29°44' W 095°16'1 1.2
2018-Jul-10 12:26N 29°43' W 095°15'3 5.2
2018-Jul-10 11:47N 29°45' W 095°11'2 5.8
2018-Jul-10 11:30N 29°44' W 095°10'3 5.9
2018-Jul-10 10:57N 29°45' W 095°06'2 2.8
2018-Jul-10 10:18N 29°46' W 095°05'1 3.4
2018-Jul-10 10:00N 29°46' W 095°06'0 0.0
2018-Jul-10 09:30N 29°46' W 095°06'0 0.3
2018-Jul-10 08:59N 29°46' W 095°05'1 0.7
2018-Jul-10 08:11N 29°45' W 095°06'0 0.0
2018-Jul-10 07:54N 29°45' W 095°06'0 0.0
2018-Jul-10 07:27N 29°45' W 095°06'2 3.7
2018-Jul-10 06:48N 29°47' W 095°04'0 0.0
2018-Jul-10 06:27N 29°47' W 095°04'0 0.0
2018-Jul-10 05:56N 29°47' W 095°04'0 0.0
2018-Jul-10 05:28N 29°47' W 095°04'0 0.0
2018-Jul-10 04:58N 29°47' W 095°04'0 0.0
2018-Jul-10 04:22N 29°47' W 095°04'0 0.1
2018-Jul-10 03:58N 29°47' W 095°04'0 0.0
2018-Jul-10 03:30N 29°47' W 095°04'3 0.3
2018-Jul-09 18:23N 29°45' W 095°04'3 5.9
2018-Jul-09 17:54N 29°43' W 095°01'2 5.7
2018-Jul-09 17:30N 29°41' W 094°59'4 6.7
2018-Jul-09 16:59N 29°38' W 094°58'3 7.0
2018-Jul-09 16:30N 29°35' W 094°56'4 7.1
2018-Jul-09 16:00N 29°32' W 094°54'11 6.5
2018-Jul-09 14:21N 29°23' W 094°48'3 5.0
2018-Jul-09 13:50N 29°24' W 094°46'15 4.8
2018-Jul-09 10:42N 29°31' W 094°30'1 4.8
2018-Jul-09 10:25N 29°32' W 094°29'2 4.9
2018-Jul-09 09:59N 29°34' W 094°28'2 4.9
2018-Jul-09 09:30N 29°34' W 094°25'2 3.9
2018-Jul-09 09:00N 29°36' W 094°24'2 4.8
2018-Jul-09 08:30N 29°37' W 094°21'2 5.1
2018-Jul-09 08:00N 29°38' W 094°19'3 5.4
2018-Jul-09 07:30N 29°39' W 094°16'3 5.6
2018-Jul-09 07:00N 29°40' W 094°13'3 5.6
2018-Jul-09 06:30N 29°41' W 094°10'3 5.5
2018-Jul-09 06:00N 29°43' W 094°08'3 5.6
2018-Jul-09 05:30N 29°44' W 094°05'3 5.6
2018-Jul-09 05:00N 29°46' W 094°03'3 5.4
2018-Jul-09 04:30N 29°48' W 094°00'2 4.7
2018-Jul-09 04:00N 29°49' W 093°58'2 4.2
2018-Jul-09 03:30N 29°51' W 093°57'3 6.2
2018-Jul-09 03:00N 29°54' W 093°55'4 7.0
2018-Jul-09 02:30N 29°56' W 093°52'3 5.8
2018-Jul-09 02:00N 29°59' W 093°50'3 6.3
2018-Jul-09 01:30N 29°60' W 093°47'3 6.1
2018-Jul-09 01:00N 30°02' W 093°44'3 5.4
2018-Jul-09 00:30N 30°04' W 093°42'1 3.0
2018-Jul-09 00:00N 30°04' W 093°40'2 4.4
2018-Jul-08 23:30N 30°04' W 093°37'2 4.8
2018-Jul-08 22:59N 30°04' W 093°35'2 3.7
2018-Jul-08 22:30N 30°04' W 093°32'2 3.7
2018-Jul-08 22:00N 30°04' W 093°30'2 3.7
2018-Jul-08 21:30N 30°04' W 093°28'2 3.7
2018-Jul-08 21:00N 30°04' W 093°26'2 3.9
2018-Jul-08 20:30N 30°04' W 093°24'2 3.7
2018-Jul-08 20:00N 30°04' W 093°22'0 0.5
2018-Jul-08 19:29N 30°04' W 093°21'0 0.6
2018-Jul-08 18:59N 30°04' W 093°22'0 0.7
2018-Jul-08 18:30N 30°04' W 093°21'2 3.7
2018-Jul-08 18:00N 30°05' W 093°20'2 3.8
2018-Jul-08 17:30N 30°07' W 093°20'1 2.0
2018-Jul-08 16:59N 30°08' W 093°20'0 0.8
2018-Jul-08 16:30N 30°08' W 093°19'0 0.1
2018-Jul-08 16:00N 30°08' W 093°19'0 0.0
2018-Jul-08 15:30N 30°08' W 093°19'0 0.0
2018-Jul-08 15:00N 30°08' W 093°19'0 0.0
2018-Jul-08 14:30N 30°08' W 093°19'0 0.0
2018-Jul-08 14:00N 30°08' W 093°19'0 0.0
2018-Jul-08 13:30N 30°08' W 093°19'0 0.0
2018-Jul-08 13:00N 30°08' W 093°19'0 0.0
2018-Jul-08 12:30N 30°08' W 093°19'0 0.0
2018-Jul-08 12:00N 30°08' W 093°19'0 0.0
2018-Jul-08 11:30N 30°08' W 093°19'0 0.0
2018-Jul-08 11:00N 30°08' W 093°19'0 0.0
2018-Jul-08 10:30N 30°08' W 093°19'0 0.0
2018-Jul-08 10:00N 30°08' W 093°19'0 0.0
2018-Jul-08 09:30N 30°08' W 093°19'0 0.0
2018-Jul-08 09:00N 30°08' W 093°19'0 0.0
2018-Jul-08 08:30N 30°08' W 093°19'0 0.0
2018-Jul-08 08:00N 30°08' W 093°19'0 0.0
2018-Jul-08 07:30N 30°08' W 093°19'0 0.0
2018-Jul-08 07:00N 30°08' W 093°19'0 0.0
2018-Jul-08 06:30N 30°08' W 093°19'0 0.0
2018-Jul-08 06:00N 30°08' W 093°19'0 0.0
2018-Jul-08 05:30N 30°08' W 093°19'0 0.0
2018-Jul-08 05:00N 30°08' W 093°19'0 0.0
2018-Jul-08 04:30N 30°08' W 093°19'0 0.0
2018-Jul-08 04:00N 30°08' W 093°19'0 0.0
2018-Jul-08 03:30N 30°08' W 093°19'0 0.0
2018-Jul-08 03:00N 30°08' W 093°19'0 0.0
2018-Jul-08 02:30N 30°08' W 093°19'0 0.0
2018-Jul-08 02:00N 30°08' W 093°19'0 0.0
2018-Jul-08 01:30N 30°08' W 093°19'0 0.0
2018-Jul-08 01:00N 30°08' W 093°19'0 0.0
2018-Jul-08 00:30N 30°08' W 093°19'0 0.0
2018-Jul-08 00:00N 30°08' W 093°19'0 0.0
2018-Jul-07 23:30N 30°08' W 093°19'0 0.0
2018-Jul-07 23:00N 30°08' W 093°19'0 0.0
2018-Jul-07 22:30N 30°08' W 093°19'0 0.0
2018-Jul-07 22:00N 30°08' W 093°19'0 0.0
2018-Jul-07 21:30N 30°08' W 093°19'0 0.0
2018-Jul-07 21:00N 30°08' W 093°19'0 0.0
2018-Jul-07 20:30N 30°08' W 093°19'0 0.0
2018-Jul-07 20:00N 30°08' W 093°19'0 0.0
2018-Jul-07 19:30N 30°08' W 093°19'0 0.0
2018-Jul-07 19:00N 30°08' W 093°19'0 0.0
2018-Jul-07 18:30N 30°08' W 093°19'0 0.0
2018-Jul-07 18:00N 30°08' W 093°19'0 0.0
2018-Jul-07 17:30N 30°08' W 093°19'0 0.1
2018-Jul-07 17:00N 30°08' W 093°19'0 0.5
2018-Jul-07 16:30N 30°08' W 093°20'0 0.0
2018-Jul-07 16:00N 30°08' W 093°20'0 0.0
2018-Jul-07 15:30N 30°08' W 093°20'0 0.0
2018-Jul-07 15:00N 30°08' W 093°20'0 0.0
2018-Jul-07 14:30N 30°08' W 093°20'0 0.0
2018-Jul-07 14:00N 30°08' W 093°20'0 0.0
2018-Jul-07 13:30N 30°08' W 093°20'0 0.0
2018-Jul-07 13:00N 30°08' W 093°20'0 0.0
2018-Jul-07 12:30N 30°08' W 093°20'0 0.1
2018-Jul-07 12:00N 30°08' W 093°19'2 3.6
2018-Jul-07 11:30N 30°06' W 093°20'2 4.5
2018-Jul-07 11:00N 30°04' W 093°21'1 1.8
2018-Jul-07 10:30N 30°04' W 093°21'0 0.6
2018-Jul-07 10:00N 30°04' W 093°22'1 2.5
2018-Jul-07 09:30N 30°04' W 093°23'2 3.8
2018-Jul-07 09:00N 30°04' W 093°25'2 4.3
2018-Jul-07 08:30N 30°04' W 093°28'2 4.3
2018-Jul-07 07:59N 30°04' W 093°30'2 4.2
2018-Jul-07 07:30N 30°04' W 093°33'2 4.3
2018-Jul-07 07:00N 30°04' W 093°35'1 2.9
2018-Jul-07 06:30N 30°04' W 093°37'2 4.2
2018-Jul-07 06:00N 30°04' W 093°39'3 5.0
2018-Jul-07 05:30N 30°03' W 093°42'3 5.7
2018-Jul-07 05:00N 30°01' W 093°45'3 6.3
2018-Jul-07 04:30N 29°59' W 093°47'3 6.5
2018-Jul-07 04:00N 29°58' W 093°51'4 7.0
2018-Jul-07 03:30N 29°55' W 093°53'4 7.5
2018-Jul-07 03:00N 29°52' W 093°56'3 6.8
2018-Jul-07 02:30N 29°49' W 093°58'3 5.2
2018-Jul-07 02:00N 29°48' W 094°00'2 4.9
2018-Jul-07 01:30N 29°46' W 094°02'3 5.3
2018-Jul-07 01:00N 29°45' W 094°05'3 5.9
2018-Jul-07 00:30N 29°43' W 094°07'3 6.0
2018-Jul-07 00:00N 29°41' W 094°10'  
Track history (hours):
 
Tides and Currents Weather Stations Pressure Air Temp Water Temp Dewpoint Dewpoint Depression Visibility Wind Speed Wind Dir Waves Ship Positions

Point Comfort

Owner: Higman Barge Lines, Inc, Orange, TX. More information available from US FCC via Universal Licensing System and Coast Guard Vessel Documentation Center.

Last reported at 2018-Jul-16 23:30 UTC. Time now 2018-Jul-16 23:53 UTC.
Position N 30°08' W 093°19'.

Length 115 m; draft 2.4 m.

Type: . MMSI: 367552440.

Date/timePositionNaut miles runAvg speedWind from/ knotsBaromVisibWave heightAir tempDewpointWater temp
2018-Jul-16 23:30N 30°08' W 093°19'0 0.1
2018-Jul-16 23:00N 30°08' W 093°19'2 4.2
2018-Jul-16 22:30N 30°06' W 093°20'2 4.1
2018-Jul-16 22:00N 30°04' W 093°21'2 3.4
2018-Jul-16 21:30N 30°04' W 093°22'2 3.6
2018-Jul-16 21:00N 30°04' W 093°25'2 4.2
2018-Jul-16 20:30N 30°04' W 093°27'2 3.5
2018-Jul-16 20:00N 30°04' W 093°29'2 4.7
2018-Jul-16 19:30N 30°04' W 093°32'3 4.8
2018-Jul-16 18:59N 30°04' W 093°35'2 5.0
2018-Jul-16 18:30N 30°04' W 093°37'3 5.3
2018-Jul-16 18:00N 30°04' W 093°40'3 5.1
2018-Jul-16 17:30N 30°03' W 093°43'2 3.9
2018-Jul-16 17:00N 30°01' W 093°44'3 6.3
2018-Jul-16 16:30N 29°59' W 093°47'3 6.4
2018-Jul-16 15:59N 29°58' W 093°51'3 6.9
2018-Jul-16 15:30N 29°55' W 093°53'4 7.8
2018-Jul-16 15:00N 29°52' W 093°56'4 7.2
2018-Jul-16 14:30N 29°49' W 093°58'3 5.5
2018-Jul-16 14:00N 29°48' W 094°00'3 5.3
2018-Jul-16 13:30N 29°46' W 094°03'2 5.1
2018-Jul-16 13:00N 29°44' W 094°05'2 5.0
2018-Jul-16 12:30N 29°43' W 094°07'3 5.1
2018-Jul-16 12:00N 29°41' W 094°10'3 5.3
2018-Jul-16 11:30N 29°41' W 094°13'3 5.5
2018-Jul-16 11:00N 29°39' W 094°15'3 5.5
2018-Jul-16 10:31N 29°38' W 094°18'2 4.5
2018-Jul-16 10:01N 29°37' W 094°20'2 4.3
2018-Jul-16 09:30N 29°36' W 094°23'2 4.5
2018-Jul-16 08:59N 29°35' W 094°25'3 5.6
2018-Jul-16 08:30N 29°33' W 094°28'3 5.8
2018-Jul-16 07:58N 29°31' W 094°30'3 5.9
2018-Jul-16 07:29N 29°30' W 094°33'2 4.6
2018-Jul-16 06:59N 29°29' W 094°36'2 4.3
2018-Jul-16 06:25N 29°28' W 094°38'2 4.3
2018-Jul-16 06:00N 29°28' W 094°40'2 4.3
2018-Jul-16 05:30N 29°26' W 094°42'2 3.9
2018-Jul-16 04:58N 29°25' W 094°44'2 3.5
2018-Jul-16 04:30N 29°24' W 094°45'2 3.7
2018-Jul-16 04:00N 29°23' W 094°47'6 5.2
2018-Jul-16 02:46N 29°28' W 094°51'2 7.2
2018-Jul-16 02:30N 29°30' W 094°52'4 7.1
2018-Jul-16 02:00N 29°32' W 094°54'3 6.8
2018-Jul-16 01:30N 29°35' W 094°56'4 6.8
2018-Jul-16 00:55N 29°39' W 094°58'3 6.6
2018-Jul-16 00:30N 29°42' W 094°59'7 0.4
2018-Jul-15 04:32N 29°47' W 095°04'0 0.0
2018-Jul-15 04:25N 29°47' W 095°04'1 1.1
2018-Jul-15 03:15N 29°46' W 095°05'0 1.5
2018-Jul-15 02:57N 29°46' W 095°05'1 0.1
2018-Jul-14 11:26N 29°45' W 095°04'2 0.1
2018-Jul-13 21:33N 29°46' W 095°05'0 0.0
2018-Jul-13 13:59N 29°46' W 095°05'3 5.4
2018-Jul-13 13:22N 29°44' W 095°09'1 0.1
2018-Jul-13 06:20N 29°44' W 095°10'0 0.0
2018-Jul-12 16:57N 29°44' W 095°10'0 0.5
2018-Jul-12 16:29N 29°45' W 095°10'2 1.8
2018-Jul-12 15:15N 29°44' W 095°07'3 2.0
2018-Jul-12 13:33N 29°47' W 095°05'0 0.1
2018-Jul-12 13:10N 29°47' W 095°05'0 0.2
2018-Jul-12 12:56N 29°47' W 095°05'0 0.2
2018-Jul-12 11:56N 29°47' W 095°04'0 0.2
2018-Jul-12 11:26N 29°47' W 095°05'1 0.9
2018-Jul-12 10:17N 29°46' W 095°04'0 0.0
2018-Jul-12 09:58N 29°46' W 095°04'2 2.8
2018-Jul-12 09:25N 29°47' W 095°04'0 0.4
2018-Jul-12 08:59N 29°47' W 095°04'0 0.1
2018-Jul-12 06:11N 29°47' W 095°05'0 0.0
2018-Jul-12 05:50N 29°47' W 095°05'2 0.2
2018-Jul-11 20:30N 29°45' W 095°06'2 0.3
2018-Jul-11 14:35N 29°47' W 095°04'0 0.0
2018-Jul-11 14:13N 29°47' W 095°04'0 0.5
2018-Jul-11 13:59N 29°47' W 095°04'0 0.5
2018-Jul-11 13:30N 29°47' W 095°04'0 0.0
2018-Jul-11 12:54N 29°47' W 095°04'0 0.0
2018-Jul-11 12:30N 29°47' W 095°04'0 0.0
2018-Jul-11 11:59N 29°47' W 095°04'2 0.6
2018-Jul-11 09:33N 29°46' W 095°05'0 6.6
2018-Jul-11 09:29N 29°46' W 095°05'4 6.1
2018-Jul-11 08:53N 29°44' W 095°09'2 6.2
2018-Jul-11 08:30N 29°45' W 095°12'2 4.0
2018-Jul-11 08:00N 29°44' W 095°14'0 0.0
2018-Jul-11 07:30N 29°44' W 095°14'0 0.9
2018-Jul-11 07:00N 29°44' W 095°13'4 6.8
2018-Jul-11 06:28N 29°44' W 095°09'3 7.3
2018-Jul-11 06:00N 29°46' W 095°06'2 4.5
2018-Jul-11 05:28N 29°48' W 095°04'0 0.1
2018-Jul-11 05:00N 29°48' W 095°04'1 1.4
2018-Jul-11 04:28N 29°47' W 095°05'0 0.0
2018-Jul-11 03:53N 29°47' W 095°05'0 0.0
2018-Jul-11 03:30N 29°47' W 095°05'0 0.0
2018-Jul-11 02:57N 29°47' W 095°05'0 0.3
2018-Jul-11 02:25N 29°47' W 095°04'1 0.2
2018-Jul-10 21:34N 29°46' W 095°05'2 6.7
2018-Jul-10 21:20N 29°45' W 095°06'2 0.7
2018-Jul-10 18:09N 29°44' W 095°09'1 6.5
2018-Jul-10 17:59N 29°44' W 095°07'3 1.8
2018-Jul-10 16:18N 29°46' W 095°05'10 3.2
2018-Jul-10 13:16N 29°44' W 095°16'0 0.0
2018-Jul-10 12:53N 29°44' W 095°16'1 1.2
2018-Jul-10 12:26N 29°43' W 095°15'3 5.2
2018-Jul-10 11:47N 29°45' W 095°11'2 5.8
2018-Jul-10 11:30N 29°44' W 095°10'3 5.9
2018-Jul-10 10:57N 29°45' W 095°06'2 2.8
2018-Jul-10 10:18N 29°46' W 095°05'1 3.4
2018-Jul-10 10:00N 29°46' W 095°06'0 0.0
2018-Jul-10 09:30N 29°46' W 095°06'0 0.3
2018-Jul-10 08:59N 29°46' W 095°05'1 0.7
2018-Jul-10 08:11N 29°45' W 095°06'0 0.0
2018-Jul-10 07:54N 29°45' W 095°06'0 0.0
2018-Jul-10 07:27N 29°45' W 095°06'2 3.7
2018-Jul-10 06:48N 29°47' W 095°04'0 0.0
2018-Jul-10 06:27N 29°47' W 095°04'0 0.0
2018-Jul-10 05:56N 29°47' W 095°04'0 0.0
2018-Jul-10 05:28N 29°47' W 095°04'0 0.0
2018-Jul-10 04:58N 29°47' W 095°04'0 0.0
2018-Jul-10 04:22N 29°47' W 095°04'0 0.1
2018-Jul-10 03:58N 29°47' W 095°04'0 0.0
2018-Jul-10 03:30N 29°47' W 095°04'3 0.3
2018-Jul-09 18:23N 29°45' W 095°04'3 5.9
2018-Jul-09 17:54N 29°43' W 095°01'2 5.7
2018-Jul-09 17:30N 29°41' W 094°59'4 6.7
2018-Jul-09 16:59N 29°38' W 094°58'3 7.0
2018-Jul-09 16:30N 29°35' W 094°56'4 7.1
2018-Jul-09 16:00N 29°32' W 094°54'11 6.5
2018-Jul-09 14:21N 29°23' W 094°48'3 5.0
2018-Jul-09 13:50N 29°24' W 094°46'15 4.8
2018-Jul-09 10:42N 29°31' W 094°30'1 4.8
2018-Jul-09 10:25N 29°32' W 094°29'2 4.9
2018-Jul-09 09:59N 29°34' W 094°28'2 4.9
2018-Jul-09 09:30N 29°34' W 094°25'2 3.9
2018-Jul-09 09:00N 29°36' W 094°24'2 4.8
2018-Jul-09 08:30N 29°37' W 094°21'2 5.1
2018-Jul-09 08:00N 29°38' W 094°19'3 5.4
2018-Jul-09 07:30N 29°39' W 094°16'3 5.6
2018-Jul-09 07:00N 29°40' W 094°13'3 5.6
2018-Jul-09 06:30N 29°41' W 094°10'3 5.5
2018-Jul-09 06:00N 29°43' W 094°08'3 5.6
2018-Jul-09 05:30N 29°44' W 094°05'3 5.6
2018-Jul-09 05:00N 29°46' W 094°03'3 5.4
2018-Jul-09 04:30N 29°48' W 094°00'2 4.7
2018-Jul-09 04:00N 29°49' W 093°58'2 4.2
2018-Jul-09 03:30N 29°51' W 093°57'3 6.2
2018-Jul-09 03:00N 29°54' W 093°55'4 7.0
2018-Jul-09 02:30N 29°56' W 093°52'3 5.8
2018-Jul-09 02:00N 29°59' W 093°50'3 6.3
2018-Jul-09 01:30N 29°60' W 093°47'3 6.1
2018-Jul-09 01:00N 30°02' W 093°44'3 5.4
2018-Jul-09 00:30N 30°04' W 093°42'1 3.0
2018-Jul-09 00:00N 30°04' W 093°40'2 4.4
2018-Jul-08 23:30N 30°04' W 093°37'2 4.8
2018-Jul-08 22:59N 30°04' W 093°35'2 3.7
2018-Jul-08 22:30N 30°04' W 093°32'2 3.7
2018-Jul-08 22:00N 30°04' W 093°30'2 3.7
2018-Jul-08 21:30N 30°04' W 093°28'2 3.7
2018-Jul-08 21:00N 30°04' W 093°26'2 3.9
2018-Jul-08 20:30N 30°04' W 093°24'2 3.7
2018-Jul-08 20:00N 30°04' W 093°22'0 0.5
2018-Jul-08 19:29N 30°04' W 093°21'0 0.6
2018-Jul-08 18:59N 30°04' W 093°22'0 0.7
2018-Jul-08 18:30N 30°04' W 093°21'2 3.7
2018-Jul-08 18:00N 30°05' W 093°20'2 3.8
2018-Jul-08 17:30N 30°07' W 093°20'1 2.0
2018-Jul-08 16:59N 30°08' W 093°20'0 0.8
2018-Jul-08 16:30N 30°08' W 093°19'0 0.1
2018-Jul-08 16:00N 30°08' W 093°19'0 0.0
2018-Jul-08 15:30N 30°08' W 093°19'0 0.0
2018-Jul-08 15:00N 30°08' W 093°19'0 0.0
2018-Jul-08 14:30N 30°08' W 093°19'0 0.0
2018-Jul-08 14:00N 30°08' W 093°19'0 0.0
2018-Jul-08 13:30N 30°08' W 093°19'0 0.0
2018-Jul-08 13:00N 30°08' W 093°19'0 0.0
2018-Jul-08 12:30N 30°08' W 093°19'0 0.0
2018-Jul-08 12:00N 30°08' W 093°19'0 0.0
2018-Jul-08 11:30N 30°08' W 093°19'0 0.0
2018-Jul-08 11:00N 30°08' W 093°19'0 0.0
2018-Jul-08 10:30N 30°08' W 093°19'0 0.0
2018-Jul-08 10:00N 30°08' W 093°19'0 0.0
2018-Jul-08 09:30N 30°08' W 093°19'0 0.0
2018-Jul-08 09:00N 30°08' W 093°19'0 0.0
2018-Jul-08 08:30N 30°08' W 093°19'0 0.0
2018-Jul-08 08:00N 30°08' W 093°19'0 0.0
2018-Jul-08 07:30N 30°08' W 093°19'0 0.0
2018-Jul-08 07:00N 30°08' W 093°19'0 0.0
2018-Jul-08 06:30N 30°08' W 093°19'0 0.0
2018-Jul-08 06:00N 30°08' W 093°19'0 0.0
2018-Jul-08 05:30N 30°08' W 093°19'0 0.0
2018-Jul-08 05:00N 30°08' W 093°19'0 0.0
2018-Jul-08 04:30N 30°08' W 093°19'0 0.0
2018-Jul-08 04:00N 30°08' W 093°19'0 0.0
2018-Jul-08 03:30N 30°08' W 093°19'0 0.0
2018-Jul-08 03:00N 30°08' W 093°19'0 0.0
2018-Jul-08 02:30N 30°08' W 093°19'0 0.0
2018-Jul-08 02:00N 30°08' W 093°19'0 0.0
2018-Jul-08 01:30N 30°08' W 093°19'0 0.0
2018-Jul-08 01:00N 30°08' W 093°19'0 0.0
2018-Jul-08 00:30N 30°08' W 093°19'0 0.0
2018-Jul-08 00:00N 30°08' W 093°19'0 0.0
2018-Jul-07 23:30N 30°08' W 093°19'0 0.0
2018-Jul-07 23:00N 30°08' W 093°19'0 0.0
2018-Jul-07 22:30N 30°08' W 093°19'0 0.0
2018-Jul-07 22:00N 30°08' W 093°19'0 0.0
2018-Jul-07 21:30N 30°08' W 093°19'0 0.0
2018-Jul-07 21:00N 30°08' W 093°19'0 0.0
2018-Jul-07 20:30N 30°08' W 093°19'0 0.0
2018-Jul-07 20:00N 30°08' W 093°19'0 0.0
2018-Jul-07 19:30N 30°08' W 093°19'0 0.0
2018-Jul-07 19:00N 30°08' W 093°19'0 0.0
2018-Jul-07 18:30N 30°08' W 093°19'0 0.0
2018-Jul-07 18:00N 30°08' W 093°19'0 0.0
2018-Jul-07 17:30N 30°08' W 093°19'0 0.1
2018-Jul-07 17:00N 30°08' W 093°19'0 0.5
2018-Jul-07 16:30N 30°08' W 093°20'0 0.0
2018-Jul-07 16:00N 30°08' W 093°20'0 0.0
2018-Jul-07 15:30N 30°08' W 093°20'0 0.0
2018-Jul-07 15:00N 30°08' W 093°20'0 0.0
2018-Jul-07 14:30N 30°08' W 093°20'0 0.0
2018-Jul-07 14:00N 30°08' W 093°20'0 0.0
2018-Jul-07 13:30N 30°08' W 093°20'0 0.0
2018-Jul-07 13:00N 30°08' W 093°20'0 0.0
2018-Jul-07 12:30N 30°08' W 093°20'0 0.1
2018-Jul-07 12:00N 30°08' W 093°19'2 3.6
2018-Jul-07 11:30N 30°06' W 093°20'2 4.5
2018-Jul-07 11:00N 30°04' W 093°21'1 1.8
2018-Jul-07 10:30N 30°04' W 093°21'0 0.6
2018-Jul-07 10:00N 30°04' W 093°22'1 2.5
2018-Jul-07 09:30N 30°04' W 093°23'2 3.8
2018-Jul-07 09:00N 30°04' W 093°25'2 4.3
2018-Jul-07 08:30N 30°04' W 093°28'2 4.3
2018-Jul-07 07:59N 30°04' W 093°30'2 4.2
2018-Jul-07 07:30N 30°04' W 093°33'2 4.3
2018-Jul-07 07:00N 30°04' W 093°35'1 2.9
2018-Jul-07 06:30N 30°04' W 093°37'2 4.2
2018-Jul-07 06:00N 30°04' W 093°39'3 5.0
2018-Jul-07 05:30N 30°03' W 093°42'3 5.7
2018-Jul-07 05:00N 30°01' W 093°45'3 6.3
2018-Jul-07 04:30N 29°59' W 093°47'3 6.5
2018-Jul-07 04:00N 29°58' W 093°51'4 7.0
2018-Jul-07 03:30N 29°55' W 093°53'4 7.5
2018-Jul-07 03:00N 29°52' W 093°56'3 6.8
2018-Jul-07 02:30N 29°49' W 093°58'3 5.2
2018-Jul-07 02:00N 29°48' W 094°00'2 4.9
2018-Jul-07 01:30N 29°46' W 094°02'3 5.3
2018-Jul-07 01:00N 29°45' W 094°05'3 5.9
2018-Jul-07 00:30N 29°43' W 094°07'3 6.0
2018-Jul-07 00:00N 29°41' W 094°10'  

Dump ship's entire track history